sensor_id;sensor_type;location;lat;lon;timestamp;pressure;altitude;pressure_sealevel;temperature;humidity
65276;BME280;51875;49.994;14.052;2023-06-01T00:01:12;98634.25;;;10.80;91.13
65276;BME280;51875;49.994;14.052;2023-06-01T00:02:33;98636.97;;;10.77;91.76
65276;BME280;51875;49.994;14.052;2023-06-01T00:03:48;98634.28;;;10.79;92.29
65276;BME280;51875;49.994;14.052;2023-06-01T00:05:04;98631.13;;;10.66;95.51
65276;BME280;51875;49.994;14.052;2023-06-01T00:06:20;98636.81;;;10.47;97.75
65276;BME280;51875;49.994;14.052;2023-06-01T00:07:36;98633.44;;;10.40;97.46
65276;BME280;51875;49.994;14.052;2023-06-01T00:08:51;98634.41;;;10.38;96.15
65276;BME280;51875;49.994;14.052;2023-06-01T00:10:07;98628.34;;;10.36;95.35
65276;BME280;51875;49.994;14.052;2023-06-01T00:11:23;98637.97;;;10.34;94.61
65276;BME280;51875;49.994;14.052;2023-06-01T00:12:40;98633.38;;;10.45;93.16
65276;BME280;51875;49.994;14.052;2023-06-01T00:13:55;98630.28;;;10.27;93.23
65276;BME280;51875;49.994;14.052;2023-06-01T00:15:11;98628.50;;;9.90;97.32
65276;BME280;51875;49.994;14.052;2023-06-01T00:16:27;98632.00;;;9.89;96.12
65276;BME280;51875;49.994;14.052;2023-06-01T00:17:44;98632.06;;;9.86;97.75
65276;BME280;51875;49.994;14.052;2023-06-01T00:18:59;98632.00;;;9.89;94.88
65276;BME280;51875;49.994;14.052;2023-06-01T00:20:18;98632.00;;;9.89;97.13
65276;BME280;51875;49.994;14.052;2023-06-01T00:21:34;98625.16;;;9.83;97.09
65276;BME280;51875;49.994;14.052;2023-06-01T00:22:50;98635.50;;;9.89;96.84
65276;BME280;51875;49.994;14.052;2023-06-01T00:24:06;98628.38;;;9.96;94.35
65276;BME280;51875;49.994;14.052;2023-06-01T00:25:22;98622.38;;;9.91;93.13
65276;BME280;51875;49.994;14.052;2023-06-01T00:26:38;98631.09;;;9.92;94.56
65276;BME280;51875;49.994;14.052;2023-06-01T00:27:53;98632.19;;;9.81;95.14
65276;BME280;51875;49.994;14.052;2023-06-01T00:29:09;98618.91;;;9.91;97.41
65276;BME280;51875;49.994;14.052;2023-06-01T00:30:25;98618.03;;;9.90;97.92
65276;BME280;51875;49.994;14.052;2023-06-01T00:31:40;98617.09;;;9.93;100.00
65276;BME280;51875;49.994;14.052;2023-06-01T00:32:56;98621.50;;;9.92;100.00
65276;BME280;51875;49.994;14.052;2023-06-01T00:34:11;98622.38;;;9.91;100.00
65276;BME280;51875;49.994;14.052;2023-06-01T00:35:27;98622.31;;;9.94;100.00
65276;BME280;51875;49.994;14.052;2023-06-01T00:36:43;98621.69;;;9.83;100.00
65276;BME280;51875;49.994;14.052;2023-06-01T00:37:58;98623.31;;;9.88;100.00
65276;BME280;51875;49.994;14.052;2023-06-01T00:39:14;98621.53;;;9.91;100.00
65276;BME280;51875;49.994;14.052;2023-06-01T00:40:30;98625.06;;;9.88;100.00
65276;BME280;51875;49.994;14.052;2023-06-01T00:41:45;98627.66;;;9.88;100.00
65276;BME280;51875;49.994;14.052;2023-06-01T00:43:01;98616.19;;;9.95;99.74
65276;BME280;51875;49.994;14.052;2023-06-01T00:44:17;98618.72;;;9.98;100.00
65276;BME280;51875;49.994;14.052;2023-06-01T00:45:33;98619.66;;;9.96;99.13
65276;BME280;51875;49.994;14.052;2023-06-01T00:46:49;98618.00;;;9.93;99.92
65276;BME280;51875;49.994;14.052;2023-06-01T00:48:05;98619.81;;;9.89;100.00
65276;BME280;51875;49.994;14.052;2023-06-01T00:49:21;98617.13;;;9.91;99.49
65276;BME280;51875;49.994;14.052;2023-06-01T00:50:37;98618.88;;;9.92;100.00
65276;BME280;51875;49.994;14.052;2023-06-01T00:51:53;98617.91;;;9.96;98.36
65276;BME280;51875;49.994;14.052;2023-06-01T00:53:15;98619.72;;;9.94;96.71
65276;BME280;51875;49.994;14.052;2023-06-01T00:54:32;98618.72;;;9.98;98.64
65276;BME280;51875;49.994;14.052;2023-06-01T00:55:48;98617.91;;;9.96;97.87
65276;BME280;51875;49.994;14.052;2023-06-01T00:57:04;98619.59;;;9.99;97.68
65276;BME280;51875;49.994;14.052;2023-06-01T00:58:21;98612.69;;;9.96;96.35
65276;BME280;51875;49.994;14.052;2023-06-01T00:59:37;98617.94;;;9.95;96.05
65276;BME280;51875;49.994;14.052;2023-06-01T01:00:53;98627.09;;;9.73;98.47
65276;BME280;51875;49.994;14.052;2023-06-01T01:02:09;98622.19;;;9.59;99.20
65276;BME280;51875;49.994;14.052;2023-06-01T01:03:25;98619.75;;;9.50;100.00
65276;BME280;51875;49.994;14.052;2023-06-01T01:04:42;98617.72;;;9.65;95.97
65276;BME280;51875;49.994;14.052;2023-06-01T01:06:07;98613.00;;;9.40;100.00
65276;BME280;51875;49.994;14.052;2023-06-01T01:09:27;98612.16;;;9.38;100.00
65276;BME280;51875;49.994;14.052;2023-06-01T01:10:53;98611.16;;;9.45;100.00
65276;BME280;51875;49.994;14.052;2023-06-01T01:12:27;98615.25;;;9.58;100.00
65276;BME280;51875;49.994;14.052;2023-06-01T01:13:50;98612.75;;;9.52;100.00
65276;BME280;51875;49.994;14.052;2023-06-01T01:15:08;98605.88;;;9.48;100.00
65276;BME280;51875;49.994;14.052;2023-06-01T01:16:32;98618.63;;;9.62;100.00
65276;BME280;51875;49.994;14.052;2023-06-01T01:17:54;98616.00;;;9.64;100.00
65276;BME280;51875;49.994;14.052;2023-06-01T01:20:40;98616.97;;;9.59;100.00
65276;BME280;51875;49.994;14.052;2023-06-01T01:22:07;98607.25;;;9.65;98.91
65276;BME280;51875;49.994;14.052;2023-06-01T01:23:46;98618.53;;;9.68;98.70
65276;BME280;51875;49.994;14.052;2023-06-01T01:29:09;98612.88;;;9.46;100.00
65276;BME280;51875;49.994;14.052;2023-06-01T01:30:28;98602.53;;;9.41;100.00
65276;BME280;51875;49.994;14.052;2023-06-01T01:31:45;98615.13;;;9.21;100.00
65276;BME280;51875;49.994;14.052;2023-06-01T01:33:01;98604.78;;;9.14;100.00
65276;BME280;51875;49.994;14.052;2023-06-01T01:34:19;98603.53;;;8.88;100.00
65276;BME280;51875;49.994;14.052;2023-06-01T01:35:36;98606.00;;;8.98;100.00
65276;BME280;51875;49.994;14.052;2023-06-01T01:36:52;98603.31;;;8.99;100.00
65276;BME280;51875;49.994;14.052;2023-06-01T01:38:08;98597.13;;;9.05;100.00
65276;BME280;51875;49.994;14.052;2023-06-01T01:39:23;98605.00;;;9.03;100.00
65276;BME280;51875;49.994;14.052;2023-06-01T01:40:39;98603.09;;;9.12;100.00
65276;BME280;51875;49.994;14.052;2023-06-01T01:41:54;98599.72;;;9.08;100.00
65276;BME280;51875;49.994;14.052;2023-06-01T01:43:10;98603.09;;;9.12;100.00
65276;BME280;51875;49.994;14.052;2023-06-01T01:44:28;98600.56;;;9.07;100.00
65276;BME280;51875;49.994;14.052;2023-06-01T01:45:48;98606.53;;;9.15;100.00
65276;BME280;51875;49.994;14.052;2023-06-01T01:47:39;98605.53;;;9.21;100.00
65276;BME280;51875;49.994;14.052;2023-06-01T01:49:28;98601.97;;;9.25;100.00
65276;BME280;51875;49.994;14.052;2023-06-01T01:51:10;98601.13;;;9.25;100.00
65276;BME280;51875;49.994;14.052;2023-06-01T01:52:32;98601.97;;;9.25;100.00
65276;BME280;51875;49.994;14.052;2023-06-01T01:53:50;98604.78;;;9.16;100.00
65276;BME280;51875;49.994;14.052;2023-06-01T01:55:08;98596.97;;;9.14;100.00
65276;BME280;51875;49.994;14.052;2023-06-01T01:56:24;98596.06;;;9.15;100.00
65276;BME280;51875;49.994;14.052;2023-06-01T01:57:42;98597.72;;;9.19;100.00
65276;BME280;51875;49.994;14.052;2023-06-01T01:58:58;98603.97;;;9.12;100.00
65276;BME280;51875;49.994;14.052;2023-06-01T02:00:15;98603.03;;;9.15;100.00
65276;BME280;51875;49.994;14.052;2023-06-01T02:01:33;98591.72;;;9.16;100.00
65276;BME280;51875;49.994;14.052;2023-06-01T02:02:48;98589.13;;;9.13;100.00
65276;BME280;51875;49.994;14.052;2023-06-01T02:04:04;98593.47;;;9.15;100.00
65276;BME280;51875;49.994;14.052;2023-06-01T02:05:23;98599.75;;;9.05;100.00
65276;BME280;51875;49.994;14.052;2023-06-01T02:06:38;98589.34;;;9.03;100.00
65276;BME280;51875;49.994;14.052;2023-06-01T02:07:54;98597.19;;;9.02;100.00
65276;BME280;51875;49.994;14.052;2023-06-01T02:09:09;98596.34;;;9.01;100.00
65276;BME280;51875;49.994;14.052;2023-06-01T02:10:25;98597.56;;;8.83;100.00
65276;BME280;51875;49.994;14.052;2023-06-01T02:11:40;98591.38;;;8.87;100.00
65276;BME280;51875;49.994;14.052;2023-06-01T02:12:56;98587.03;;;8.88;100.00
65276;BME280;51875;49.994;14.052;2023-06-01T02:14:12;98589.13;;;8.66;100.00
65276;BME280;51875;49.994;14.052;2023-06-01T02:15:27;98589.88;;;8.72;100.00
65276;BME280;51875;49.994;14.052;2023-06-01T02:16:43;98590.22;;;8.55;100.00
65276;BME280;51875;49.994;14.052;2023-06-01T02:17:59;98588.38;;;8.59;100.00
65276;BME280;51875;49.994;14.052;2023-06-01T02:19:15;98592.81;;;8.55;100.00
65276;BME280;51875;49.994;14.052;2023-06-01T02:20:31;98586.88;;;8.44;100.00
65276;BME280;51875;49.994;14.052;2023-06-01T02:21:47;98589.50;;;8.42;100.00
65276;BME280;51875;49.994;14.052;2023-06-01T02:23:02;98593.25;;;8.27;100.00
65276;BME280;51875;49.994;14.052;2023-06-01T02:24:18;98589.50;;;8.42;100.00
65276;BME280;51875;49.994;14.052;2023-06-01T02:25:34;98587.09;;;8.30;100.00
65276;BME280;51875;49.994;14.052;2023-06-01T02:26:49;98584.72;;;8.17;100.00
65276;BME280;51875;49.994;14.052;2023-06-01T02:28:07;98588.19;;;8.18;100.00
65276;BME280;51875;49.994;14.052;2023-06-01T02:29:23;98589.84;;;8.22;100.00
65276;BME280;51875;49.994;14.052;2023-06-01T02:30:38;98593.38;;;8.18;100.00
65276;BME280;51875;49.994;14.052;2023-06-01T02:31:55;98591.63;;;8.20;100.00
65276;BME280;51875;49.994;14.052;2023-06-01T02:33:11;98586.28;;;8.28;100.00
65276;BME280;51875;49.994;14.052;2023-06-01T02:34:26;98589.50;;;8.44;100.00
65276;BME280;51875;49.994;14.052;2023-06-01T02:35:42;98583.34;;;8.48;100.00
65276;BME280;51875;49.994;14.052;2023-06-01T02:36:57;98586.00;;;8.45;100.00
65276;BME280;51875;49.994;14.052;2023-06-01T02:38:14;98592.03;;;8.50;100.00
65276;BME280;51875;49.994;14.052;2023-06-01T02:39:30;98585.69;;;8.64;100.00
65276;BME280;51875;49.994;14.052;2023-06-01T02:40:45;98592.63;;;8.65;100.00
65276;BME280;51875;49.994;14.052;2023-06-01T02:42:01;98592.81;;;8.55;100.00
65276;BME280;51875;49.994;14.052;2023-06-01T02:43:17;98587.59;;;8.55;100.00
65276;BME280;51875;49.994;14.052;2023-06-01T02:44:33;98586.66;;;8.58;100.00
65276;BME280;51875;49.994;14.052;2023-06-01T02:45:48;98588.44;;;8.56;100.00
65276;BME280;51875;49.994;14.052;2023-06-01T02:47:04;98586.06;;;8.42;100.00
65276;BME280;51875;49.994;14.052;2023-06-01T02:48:20;98590.41;;;8.41;100.00
65276;BME280;51875;49.994;14.052;2023-06-01T02:49:36;98589.34;;;8.55;100.00
65276;BME280;51875;49.994;14.052;2023-06-01T02:50:52;98585.22;;;8.40;100.00
65276;BME280;51875;49.994;14.052;2023-06-01T02:52:07;98587.88;;;8.37;100.00
65276;BME280;51875;49.994;14.052;2023-06-01T02:53:23;98588.06;;;8.26;100.00
65276;BME280;51875;49.994;14.052;2023-06-01T02:54:42;98579.88;;;8.47;100.00
65276;BME280;51875;49.994;14.052;2023-06-01T02:55:58;98595.66;;;8.40;100.00
65276;BME280;51875;49.994;14.052;2023-06-01T02:57:13;98589.06;;;8.17;100.00
65276;BME280;51875;49.994;14.052;2023-06-01T02:58:29;98591.59;;;8.22;100.00
65276;BME280;51875;49.994;14.052;2023-06-01T02:59:44;98585.44;;;8.27;100.00
65276;BME280;51875;49.994;14.052;2023-06-01T03:01:00;98581.69;;;8.42;100.00
65276;BME280;51875;49.994;14.052;2023-06-01T03:02:16;98579.00;;;8.47;100.00
65276;BME280;51875;49.994;14.052;2023-06-01T03:03:32;98577.22;;;8.49;100.00
65276;BME280;51875;49.994;14.052;2023-06-01T03:04:47;98578.13;;;8.48;100.00
65276;BME280;51875;49.994;14.052;2023-06-01T03:06:04;98585.06;;;8.49;100.00
65276;BME280;51875;49.994;14.052;2023-06-01T03:07:21;98589.41;;;8.50;100.00
65276;BME280;51875;49.994;14.052;2023-06-01T03:08:37;98578.09;;;8.50;100.00
65276;BME280;51875;49.994;14.052;2023-06-01T03:09:52;98576.38;;;8.48;100.00
65276;BME280;51875;49.994;14.052;2023-06-01T03:11:08;98579.19;;;8.36;100.00
65276;BME280;51875;49.994;14.052;2023-06-01T03:12:23;98580.91;;;8.37;100.00
65276;BME280;51875;49.994;14.052;2023-06-01T03:13:39;98584.50;;;8.30;100.00
65276;BME280;51875;49.994;14.052;2023-06-01T03:14:54;98582.75;;;8.30;100.00
65276;BME280;51875;49.994;14.052;2023-06-01T03:16:10;98582.78;;;8.29;100.00
65276;BME280;51875;49.994;14.052;2023-06-01T03:17:25;98582.06;;;8.20;100.00
65276;BME280;51875;49.994;14.052;2023-06-01T03:18:41;98577.50;;;8.33;100.00
65276;BME280;51875;49.994;14.052;2023-06-01T03:19:56;98580.84;;;8.40;100.00
65276;BME280;51875;49.994;14.052;2023-06-01T03:21:12;98582.63;;;8.40;100.00
65276;BME280;51875;49.994;14.052;2023-06-01T03:22:28;98587.88;;;8.37;100.00
65276;BME280;51875;49.994;14.052;2023-06-01T03:23:43;98582.56;;;8.41;100.00
65276;BME280;51875;49.994;14.052;2023-06-01T03:24:59;98580.84;;;8.40;100.00
65276;BME280;51875;49.994;14.052;2023-06-01T03:26:15;98586.97;;;8.39;100.00
65276;BME280;51875;49.994;14.052;2023-06-01T03:27:34;98587.78;;;8.43;100.00
65276;BME280;51875;49.994;14.052;2023-06-01T03:28:49;98588.63;;;8.43;100.00
65276;BME280;51875;49.994;14.052;2023-06-01T03:30:05;98590.31;;;8.47;100.00
65276;BME280;51875;49.994;14.052;2023-06-01T03:31:25;98593.00;;;8.43;100.00
65276;BME280;51875;49.994;14.052;2023-06-01T03:32:41;98593.09;;;8.37;100.00
65276;BME280;51875;49.994;14.052;2023-06-01T03:33:57;98591.34;;;8.37;100.00
65276;BME280;51875;49.994;14.052;2023-06-01T03:35:13;98587.78;;;8.43;100.00
65276;BME280;51875;49.994;14.052;2023-06-01T03:36:29;98589.56;;;8.41;100.00
65276;BME280;51875;49.994;14.052;2023-06-01T03:37:45;98587.78;;;8.41;100.00
65276;BME280;51875;49.994;14.052;2023-06-01T03:39:01;98588.59;;;8.45;100.00
65276;BME280;51875;49.994;14.052;2023-06-01T03:40:21;98585.50;;;8.24;100.00
65276;BME280;51875;49.994;14.052;2023-06-01T03:41:37;98585.56;;;8.16;100.00
65276;BME280;51875;49.994;14.052;2023-06-01T03:42:52;98583.16;;;8.05;100.00
65276;BME280;51875;49.994;14.052;2023-06-01T03:44:09;98581.66;;;7.90;100.00
65276;BME280;51875;49.994;14.052;2023-06-01T03:45:24;98583.41;;;7.88;100.00
65276;BME280;51875;49.994;14.052;2023-06-01T03:46:40;98582.19;;;8.11;100.00
65276;BME280;51875;49.994;14.052;2023-06-01T03:47:56;98579.44;;;8.20;100.00
65276;BME280;51875;49.994;14.052;2023-06-01T03:49:11;98569.72;;;8.29;100.00
65276;BME280;51875;49.994;14.052;2023-06-01T03:50:27;98579.16;;;8.38;100.00
65276;BME280;51875;49.994;14.052;2023-06-01T03:51:42;98574.72;;;8.43;100.00
65276;BME280;51875;49.994;14.052;2023-06-01T03:52:58;98566.00;;;8.44;100.00
65276;BME280;51875;49.994;14.052;2023-06-01T03:54:13;98565.94;;;8.48;100.00
65276;BME280;51875;49.994;14.052;2023-06-01T03:55:29;98575.47;;;8.53;100.00
65276;BME280;51875;49.994;14.052;2023-06-01T03:56:46;98573.72;;;8.53;100.00
65276;BME280;51875;49.994;14.052;2023-06-01T03:58:01;98577.09;;;8.60;100.00
65276;BME280;51875;49.994;14.052;2023-06-01T03:59:18;98572.03;;;8.51;100.00
65276;BME280;51875;49.994;14.052;2023-06-01T04:00:34;98570.47;;;8.39;100.00
65276;BME280;51875;49.994;14.052;2023-06-01T04:01:50;98570.47;;;8.39;100.00
65276;BME280;51875;49.994;14.052;2023-06-01T04:03:06;98572.19;;;8.40;100.00
65276;BME280;51875;49.994;14.052;2023-06-01T04:04:24;98572.19;;;8.40;100.00
65276;BME280;51875;49.994;14.052;2023-06-01T04:05:43;98569.44;;;8.47;100.00
65276;BME280;51875;49.994;14.052;2023-06-01T04:07:05;98577.59;;;8.79;100.00
65276;BME280;51875;49.994;14.052;2023-06-01T04:08:21;98571.38;;;8.86;100.00
65276;BME280;51875;49.994;14.052;2023-06-01T04:09:36;98573.97;;;8.88;100.00
65276;BME280;51875;49.994;14.052;2023-06-01T04:10:53;98576.53;;;8.91;100.00
65276;BME280;51875;49.994;14.052;2023-06-01T04:12:09;98576.47;;;8.93;100.00
65276;BME280;51875;49.994;14.052;2023-06-01T04:13:26;98579.06;;;8.94;100.00
65276;BME280;51875;49.994;14.052;2023-06-01T04:14:41;98577.34;;;8.93;100.00
65276;BME280;51875;49.994;14.052;2023-06-01T04:15:57;98577.28;;;8.96;100.00
65276;BME280;51875;49.994;14.052;2023-06-01T04:17:12;98577.28;;;8.96;100.00
65276;BME280;51875;49.994;14.052;2023-06-01T04:18:28;98574.13;;;8.80;100.00
65276;BME280;51875;49.994;14.052;2023-06-01T04:19:47;98570.78;;;8.72;100.00
65276;BME280;51875;49.994;14.052;2023-06-01T04:21:02;98577.91;;;8.62;100.00
65276;BME280;51875;49.994;14.052;2023-06-01T04:22:18;98576.06;;;8.67;100.00
65276;BME280;51875;49.994;14.052;2023-06-01T04:23:34;98581.22;;;8.70;100.00
65276;BME280;51875;49.994;14.052;2023-06-01T04:24:50;98578.34;;;8.86;100.00
65276;BME280;51875;49.994;14.052;2023-06-01T04:26:05;98583.25;;;9.03;100.00
65276;BME280;51875;49.994;14.052;2023-06-01T04:27:21;98580.69;;;9.00;100.00
65276;BME280;51875;49.994;14.052;2023-06-01T04:28:39;98578.91;;;9.02;100.00
65276;BME280;51875;49.994;14.052;2023-06-01T04:29:59;98576.25;;;9.05;100.00
65276;BME280;51875;49.994;14.052;2023-06-01T04:31:14;98583.00;;;9.17;100.00
65276;BME280;51875;49.994;14.052;2023-06-01T04:32:37;98580.97;;;9.30;100.00
65276;BME280;51875;49.994;14.052;2023-06-01T04:33:55;98580.81;;;9.38;100.00
65276;BME280;51875;49.994;14.052;2023-06-01T04:35:11;98578.09;;;9.42;100.00
65276;BME280;51875;49.994;14.052;2023-06-01T04:36:30;98585.94;;;9.42;100.00
65276;BME280;51875;49.994;14.052;2023-06-01T04:37:48;98578.91;;;9.46;100.00
65276;BME280;51875;49.994;14.052;2023-06-01T04:39:07;98584.00;;;9.52;100.00
65276;BME280;51875;49.994;14.052;2023-06-01T04:40:23;98584.72;;;9.59;100.00
65276;BME280;51875;49.994;14.052;2023-06-01T04:41:39;98580.66;;;9.45;100.00
65276;BME280;51875;49.994;14.052;2023-06-01T04:42:55;98582.28;;;9.50;100.00
65276;BME280;51875;49.994;14.052;2023-06-01T04:44:13;98579.56;;;9.57;100.00
65276;BME280;51875;49.994;14.052;2023-06-01T04:45:29;98570.63;;;9.66;100.00
65276;BME280;51875;49.994;14.052;2023-06-01T04:46:48;98573.00;;;9.77;100.00
65276;BME280;51875;49.994;14.052;2023-06-01T04:48:06;98572.84;;;9.83;100.00
65276;BME280;51875;49.994;14.052;2023-06-01T04:49:25;98575.25;;;9.93;100.00
65276;BME280;51875;49.994;14.052;2023-06-01T04:50:43;98573.34;;;10.01;100.00
65276;BME280;51875;49.994;14.052;2023-06-01T04:51:59;98574.91;;;10.08;100.00
65276;BME280;51875;49.994;14.052;2023-06-01T04:53:16;98575.00;;;10.03;100.00
65276;BME280;51875;49.994;14.052;2023-06-01T04:54:31;98578.09;;;10.21;100.00
65276;BME280;51875;49.994;14.052;2023-06-01T04:55:47;98579.00;;;10.20;100.00
65276;BME280;51875;49.994;14.052;2023-06-01T04:57:04;98573.56;;;10.28;100.00
65276;BME280;51875;49.994;14.052;2023-06-01T04:58:23;98573.38;;;10.36;100.00
65276;BME280;51875;49.994;14.052;2023-06-01T04:59:40;98576.56;;;10.49;100.00
65276;BME280;51875;49.994;14.052;2023-06-01T05:00:56;98573.75;;;10.56;100.00
65276;BME280;51875;49.994;14.052;2023-06-01T05:02:13;98567.78;;;10.51;100.00
65276;BME280;51875;49.994;14.052;2023-06-01T05:03:29;98571.66;;;10.35;100.00
65276;BME280;51875;49.994;14.052;2023-06-01T05:04:44;98568.72;;;10.49;100.00
65276;BME280;51875;49.994;14.052;2023-06-01T05:06:00;98559.84;;;10.54;100.00
65276;BME280;51875;49.994;14.052;2023-06-01T05:07:16;98557.47;;;10.45;100.00
65276;BME280;51875;49.994;14.052;2023-06-01T05:08:32;98569.88;;;10.71;100.00
65276;BME280;51875;49.994;14.052;2023-06-01T05:09:48;98558.72;;;10.65;100.00
65276;BME280;51875;49.994;14.052;2023-06-01T05:11:04;98563.75;;;10.72;100.00
65276;BME280;51875;49.994;14.052;2023-06-01T05:12:20;98553.56;;;10.93;100.00
65276;BME280;51875;49.994;14.052;2023-06-01T05:13:36;98557.53;;;10.77;100.00
65276;BME280;51875;49.994;14.052;2023-06-01T05:14:51;98561.28;;;10.66;100.00
65276;BME280;51875;49.994;14.052;2023-06-01T05:16:08;98551.22;;;10.84;100.00
65276;BME280;51875;49.994;14.052;2023-06-01T05:17:23;98548.25;;;10.96;100.00
65276;BME280;51875;49.994;14.052;2023-06-01T05:18:39;98547.63;;;10.88;100.00
65276;BME280;51875;49.994;14.052;2023-06-01T05:19:55;98552.53;;;10.99;100.00
65276;BME280;51875;49.994;14.052;2023-06-01T05:21:12;98546.88;;;11.14;100.00
65276;BME280;51875;49.994;14.052;2023-06-01T05:22:27;98550.13;;;10.93;100.00
65276;BME280;51875;49.994;14.052;2023-06-01T05:23:43;98548.88;;;11.06;100.00
65276;BME280;51875;49.994;14.052;2023-06-01T05:24:58;98548.44;;;11.22;100.00
65276;BME280;51875;49.994;14.052;2023-06-01T05:26:15;98545.00;;;11.20;100.00
65276;BME280;51875;49.994;14.052;2023-06-01T05:27:31;98545.81;;;11.22;100.00
65276;BME280;51875;49.994;14.052;2023-06-01T05:28:47;98547.28;;;11.30;100.00
65276;BME280;51875;49.994;14.052;2023-06-01T05:30:03;98542.31;;;11.51;100.00
65276;BME280;51875;49.994;14.052;2023-06-01T05:31:19;98537.72;;;11.58;100.00
65276;BME280;51875;49.994;14.052;2023-06-01T05:32:35;98546.47;;;11.58;100.00
65276;BME280;51875;49.994;14.052;2023-06-01T05:33:51;98538.59;;;11.58;100.00
65276;BME280;51875;49.994;14.052;2023-06-01T05:35:07;98540.97;;;11.68;100.00
65276;BME280;51875;49.994;14.052;2023-06-01T05:36:23;98548.28;;;11.56;100.00
65276;BME280;51875;49.994;14.052;2023-06-01T05:37:38;98547.81;;;11.72;100.00
65276;BME280;51875;49.994;14.052;2023-06-01T05:38:54;98541.31;;;11.84;100.00
65276;BME280;51875;49.994;14.052;2023-06-01T05:40:10;98550.81;;;11.88;100.00
65276;BME280;51875;49.994;14.052;2023-06-01T05:41:25;98547.44;;;11.84;100.00
65276;BME280;51875;49.994;14.052;2023-06-01T05:42:41;98551.75;;;12.14;100.00
65276;BME280;51875;49.994;14.052;2023-06-01T05:43:57;98540.50;;;11.82;100.00
65276;BME280;51875;49.994;14.052;2023-06-01T05:45:13;98540.28;;;12.18;100.00
65276;BME280;51875;49.994;14.052;2023-06-01T05:46:28;98543.56;;;12.25;100.00
65276;BME280;51875;49.994;14.052;2023-06-01T05:47:44;98540.81;;;12.28;100.00
65276;BME280;51875;49.994;14.052;2023-06-01T05:48:59;98539.91;;;12.29;100.00
65276;BME280;51875;49.994;14.052;2023-06-01T05:50:16;98538.88;;;12.33;100.00
65276;BME280;51875;49.994;14.052;2023-06-01T05:51:32;98533.44;;;12.65;100.00
65276;BME280;51875;49.994;14.052;2023-06-01T05:52:52;98537.72;;;12.42;100.00
65276;BME280;51875;49.994;14.052;2023-06-01T05:54:07;98536.47;;;12.54;100.00
65276;BME280;51875;49.994;14.052;2023-06-01T05:55:23;98537.25;;;12.56;100.00
65276;BME280;51875;49.994;14.052;2023-06-01T05:56:38;98540.22;;;12.72;100.00
65276;BME280;51875;49.994;14.052;2023-06-01T05:57:55;98536.44;;;12.79;100.00
65276;BME280;51875;49.994;14.052;2023-06-01T05:59:11;98535.84;;;12.96;100.00
65276;BME280;51875;49.994;14.052;2023-06-01T06:00:26;98532.97;;;13.03;100.00
65276;BME280;51875;49.994;14.052;2023-06-01T06:01:42;98532.81;;;13.31;100.00
65276;BME280;51875;49.994;14.052;2023-06-01T06:02:59;98530.59;;;13.20;100.00
65276;BME280;51875;49.994;14.052;2023-06-01T06:04:15;98534.84;;;13.48;100.00
65276;BME280;51875;49.994;14.052;2023-06-01T06:05:31;98532.47;;;13.40;100.00
65276;BME280;51875;49.994;14.052;2023-06-01T06:06:47;98530.72;;;13.65;100.00
65276;BME280;51875;49.994;14.052;2023-06-01T06:08:02;98527.94;;;13.68;100.00
65276;BME280;51875;49.994;14.052;2023-06-01T06:09:18;98527.31;;;14.06;100.00
65276;BME280;51875;49.994;14.052;2023-06-01T06:10:33;98525.28;;;13.69;100.00
65276;BME280;51875;49.994;14.052;2023-06-01T06:11:49;98536.41;;;13.98;100.00
65276;BME280;51875;49.994;14.052;2023-06-01T06:13:05;98528.59;;;13.95;100.00
65276;BME280;51875;49.994;14.052;2023-06-01T06:14:20;98532.00;;;14.42;95.94
65276;BME280;51875;49.994;14.052;2023-06-01T06:15:36;98534.22;;;14.31;94.55
65276;BME280;51875;49.994;14.052;2023-06-01T06:16:52;98535.13;;;14.30;98.75
65276;BME280;51875;49.994;14.052;2023-06-01T06:18:07;98531.06;;;14.43;93.45
65276;BME280;51875;49.994;14.052;2023-06-01T06:19:23;98532.06;;;14.61;91.37
65276;BME280;51875;49.994;14.052;2023-06-01T06:20:39;98532.50;;;14.50;90.16
65276;BME280;51875;49.994;14.052;2023-06-01T06:21:55;98523.03;;;14.88;81.54
65276;BME280;51875;49.994;14.052;2023-06-01T06:23:10;98515.06;;;15.08;81.48
65276;BME280;51875;49.994;14.052;2023-06-01T06:24:26;98524.59;;;15.13;80.09
65276;BME280;51875;49.994;14.052;2023-06-01T06:25:42;98521.19;;;14.90;79.34
65276;BME280;51875;49.994;14.052;2023-06-01T06:26:58;98527.53;;;14.86;81.02
65276;BME280;51875;49.994;14.052;2023-06-01T06:28:14;98520.84;;;14.97;79.73
65276;BME280;51875;49.994;14.052;2023-06-01T06:29:30;98514.75;;;15.16;81.72
65276;BME280;51875;49.994;14.052;2023-06-01T06:30:45;98515.38;;;15.21;79.69
65276;BME280;51875;49.994;14.052;2023-06-01T06:32:01;98511.53;;;15.48;78.81
65276;BME280;51875;49.994;14.052;2023-06-01T06:33:17;98516.38;;;15.57;75.89
65276;BME280;51875;49.994;14.052;2023-06-01T06:34:33;98510.81;;;15.63;73.83
65276;BME280;51875;49.994;14.052;2023-06-01T06:35:52;98515.53;;;15.37;78.01
65276;BME280;51875;49.994;14.052;2023-06-01T06:37:07;98516.91;;;15.46;76.24
65276;BME280;51875;49.994;14.052;2023-06-01T06:38:22;98509.44;;;15.74;76.21
65276;BME280;51875;49.994;14.052;2023-06-01T06:39:38;98511.38;;;15.89;72.50
65276;BME280;51875;49.994;14.052;2023-06-01T06:40:54;98517.91;;;16.17;71.08
65276;BME280;51875;49.994;14.052;2023-06-01T06:42:12;98512.63;;;16.17;71.33
65276;BME280;51875;49.994;14.052;2023-06-01T06:43:28;98510.78;;;16.19;71.57
65276;BME280;51875;49.994;14.052;2023-06-01T06:44:43;98506.75;;;16.12;69.62
65276;BME280;51875;49.994;14.052;2023-06-01T06:45:59;98514.50;;;16.15;74.07
65276;BME280;51875;49.994;14.052;2023-06-01T06:47:14;98506.19;;;16.23;73.05
65276;BME280;51875;49.994;14.052;2023-06-01T06:48:33;98512.75;;;16.33;69.48